createdAt,value
2023-03-15T00:00:12.008Z,4.80
2023-03-15T00:02:41.584Z,4.80
2023-03-15T00:05:13.870Z,4.80
2023-03-15T00:07:42.297Z,4.80
2023-03-15T00:10:12.160Z,4.80
2023-03-15T00:12:43.054Z,4.80
2023-03-15T00:15:15.331Z,4.80
2023-03-15T00:17:44.990Z,4.80
2023-03-15T00:20:15.722Z,4.80
2023-03-15T00:22:43.902Z,4.80
2023-03-15T00:25:12.379Z,4.80
2023-03-15T00:27:42.113Z,4.70
2023-03-15T00:30:12.187Z,4.70
2023-03-15T00:32:40.925Z,4.60
2023-03-15T00:35:12.825Z,4.60
2023-03-15T00:37:41.063Z,4.60
2023-03-15T00:40:12.262Z,4.60
2023-03-15T00:42:41.886Z,4.60
2023-03-15T00:45:10.663Z,4.60
2023-03-15T00:47:38.771Z,4.60
2023-03-15T00:50:07.231Z,4.60
2023-03-15T00:52:37.156Z,4.60
2023-03-15T00:55:06.778Z,4.60
2023-03-15T00:57:35.255Z,4.70
2023-03-15T01:00:06.051Z,4.70
2023-03-15T01:02:37.579Z,4.70
2023-03-15T01:05:07.571Z,4.60
2023-03-15T01:07:36.443Z,4.60
2023-03-15T01:10:08.603Z,4.60
2023-03-15T01:12:36.894Z,4.60
2023-03-15T01:15:11.876Z,4.60
2023-03-15T01:17:40.084Z,4.60
2023-03-15T01:20:10.571Z,4.60
2023-03-15T01:22:38.775Z,4.50
2023-03-15T01:25:10.317Z,4.50
2023-03-15T01:27:38.929Z,4.50
2023-03-15T01:30:10.534Z,4.50
2023-03-15T01:32:38.762Z,4.40
2023-03-15T01:35:08.900Z,4.40
2023-03-15T01:37:37.388Z,4.30
2023-03-15T01:40:08.176Z,4.20
2023-03-15T01:43:10.894Z,4.10
2023-03-15T01:46:08.806Z,4.00
2023-03-15T01:48:45.042Z,3.80
2023-03-15T01:51:23.751Z,3.70
2023-03-15T01:53:58.101Z,3.60
2023-03-15T01:56:28.933Z,3.50
2023-03-15T01:59:01.006Z,3.50
2023-03-15T02:01:32.114Z,3.40
2023-03-15T02:04:08.940Z,3.40
2023-03-15T02:06:46.514Z,3.40
2023-03-15T02:09:19.187Z,3.30
2023-03-15T02:11:49.126Z,3.30
2023-03-15T02:14:19.320Z,3.30
2023-03-15T02:16:53.391Z,3.40
2023-03-15T02:19:41.487Z,3.30
2023-03-15T02:22:29.424Z,3.40
2023-03-15T02:25:09.713Z,3.40
2023-03-15T02:27:41.344Z,3.40
2023-03-15T02:30:12.788Z,3.40
2023-03-15T02:32:43.443Z,3.30
2023-03-15T02:35:12.269Z,3.30
2023-03-15T02:37:45.868Z,3.30
2023-03-15T02:40:21.644Z,3.30
2023-03-15T02:42:58.570Z,3.30
2023-03-15T02:45:30.010Z,3.30
2023-03-15T02:47:58.300Z,3.30
2023-03-15T02:50:26.702Z,3.40
2023-03-15T02:52:54.987Z,3.40
2023-03-15T02:55:24.070Z,3.40
2023-03-15T02:57:53.620Z,3.40
2023-03-15T03:00:22.606Z,3.40
2023-03-15T03:02:50.862Z,3.40
2023-03-15T03:05:19.358Z,3.40
2023-03-15T03:07:49.160Z,3.40
2023-03-15T03:10:20.528Z,3.40
2023-03-15T03:12:59.036Z,3.40
2023-03-15T03:15:36.488Z,3.40
2023-03-15T03:18:05.258Z,3.30
2023-03-15T03:20:33.649Z,3.20
2023-03-15T03:23:05.806Z,3.20
2023-03-15T03:25:36.742Z,3.10
2023-03-15T03:28:06.376Z,3.00
2023-03-15T03:30:37.121Z,3.00
2023-03-15T03:33:05.760Z,2.90
2023-03-15T03:35:34.113Z,2.90
2023-03-15T03:38:02.416Z,2.90
2023-03-15T03:40:35.613Z,2.90
2023-03-15T03:43:08.136Z,2.90
2023-03-15T03:45:36.902Z,2.80
2023-03-15T03:48:06.453Z,2.80
2023-03-15T03:50:36.008Z,2.80
2023-03-15T03:53:04.197Z,2.80
2023-03-15T03:55:35.606Z,2.80
2023-03-15T03:58:03.685Z,2.70
2023-03-15T04:00:44.161Z,2.70
2023-03-15T04:03:12.832Z,2.60
2023-03-15T04:05:46.407Z,2.60
2023-03-15T04:08:20.258Z,2.60
2023-03-15T04:10:52.087Z,2.50
2023-03-15T04:13:20.971Z,2.50
2023-03-15T04:15:52.366Z,2.40
2023-03-15T04:18:21.637Z,2.30
2023-03-15T04:20:54.525Z,2.30
2023-03-15T04:23:24.266Z,2.20
2023-03-15T04:26:11.307Z,2.20
2023-03-15T04:29:05.759Z,2.10
2023-03-15T04:31:49.140Z,2.10
2023-03-15T04:34:30.736Z,2.00
2023-03-15T04:36:58.882Z,2.00
2023-03-15T04:39:53.378Z,1.90
2023-03-15T04:42:40.521Z,1.80
2023-03-15T04:45:20.615Z,1.80
2023-03-15T04:48:08.579Z,1.70
2023-03-15T04:50:42.954Z,1.70
2023-03-15T04:53:17.091Z,1.70
2023-03-15T04:55:49.541Z,1.70
2023-03-15T04:58:56.278Z,1.60
2023-03-15T05:01:30.914Z,1.60
2023-03-15T05:04:19.067Z,1.50
2023-03-15T05:07:10.590Z,1.50
2023-03-15T05:09:46.607Z,1.50
2023-03-15T05:12:17.454Z,1.40
2023-03-15T05:14:45.878Z,1.40
2023-03-15T05:17:33.685Z,1.40
2023-03-15T05:20:09.210Z,1.40
2023-03-15T05:22:53.120Z,1.30
2023-03-15T05:25:38.831Z,1.30
2023-03-15T05:28:10.034Z,1.30
2023-03-15T05:30:57.930Z,1.30
2023-03-15T05:33:46.955Z,1.30
2023-03-15T05:36:31.855Z,1.30
2023-03-15T05:39:18.810Z,1.20
2023-03-15T05:42:10.541Z,1.20
2023-03-15T05:44:58.207Z,1.20
2023-03-15T05:47:46.630Z,1.20
2023-03-15T05:50:34.338Z,1.20
2023-03-15T05:53:22.381Z,1.20
2023-03-15T05:56:19.741Z,1.20
2023-03-15T05:59:13.785Z,1.20
2023-03-15T06:02:00.865Z,1.20
2023-03-15T06:04:38.009Z,1.20
2023-03-15T06:07:07.143Z,1.30
2023-03-15T06:09:37.055Z,1.30
2023-03-15T06:12:06.803Z,1.30
2023-03-15T06:14:34.950Z,1.30
2023-03-15T06:17:08.214Z,1.40
2023-03-15T06:19:37.938Z,1.40
2023-03-15T06:22:09.336Z,1.40
2023-03-15T06:24:46.152Z,1.50
2023-03-15T06:27:14.428Z,1.50
2023-03-15T06:29:42.886Z,1.60
2023-03-15T06:32:11.452Z,1.60
2023-03-15T06:34:42.431Z,1.60
2023-03-15T06:37:16.270Z,1.70
2023-03-15T06:39:51.045Z,1.70
2023-03-15T06:42:19.370Z,1.70
2023-03-15T06:44:48.558Z,1.80
2023-03-15T06:47:17.833Z,1.80
2023-03-15T06:49:50.255Z,1.90
2023-03-15T06:52:20.112Z,1.90
2023-03-15T06:54:48.220Z,2.00
2023-03-15T06:57:17.778Z,2.00
2023-03-15T06:59:45.910Z,2.00
2023-03-15T07:02:17.789Z,2.10
2023-03-15T07:04:46.469Z,2.10
2023-03-15T07:07:15.893Z,2.20
2023-03-15T07:09:44.295Z,2.20
2023-03-15T07:12:12.861Z,2.20
2023-03-15T07:14:42.307Z,2.30
2023-03-15T07:17:10.614Z,2.40
2023-03-15T07:19:46.770Z,2.40
2023-03-15T07:22:23.345Z,2.40
2023-03-15T07:24:51.430Z,2.50
2023-03-15T07:27:19.676Z,2.50
2023-03-15T07:29:49.557Z,2.60
2023-03-15T07:32:18.007Z,2.60
2023-03-15T07:34:46.210Z,2.70
2023-03-15T07:37:14.444Z,2.80
2023-03-15T07:39:42.599Z,2.90
2023-03-15T07:42:11.428Z,2.90
2023-03-15T07:44:43.713Z,3.00
2023-03-15T07:47:13.425Z,3.10
2023-03-15T07:49:41.565Z,3.20
2023-03-15T07:52:10.426Z,3.30
2023-03-15T07:54:38.537Z,3.30
2023-03-15T07:57:06.991Z,3.40
2023-03-15T07:59:35.125Z,3.40
2023-03-15T08:02:03.499Z,3.40
2023-03-15T08:04:35.036Z,3.40
2023-03-15T08:07:04.099Z,3.50
2023-03-15T08:09:34.567Z,3.60
2023-03-15T08:12:03.397Z,3.70
2023-03-15T08:14:31.655Z,3.60
2023-03-15T08:16:59.781Z,3.70
2023-03-15T08:19:28.012Z,3.70
2023-03-15T08:21:57.498Z,3.70
2023-03-15T08:24:25.751Z,3.80
2023-03-15T08:26:53.955Z,3.90
2023-03-15T08:29:22.102Z,4.00
2023-03-15T08:31:50.338Z,4.00
2023-03-15T08:34:18.482Z,4.10
2023-03-15T08:36:48.270Z,4.20
2023-03-15T08:39:17.960Z,4.20
2023-03-15T08:41:47.396Z,4.30
2023-03-15T08:44:15.768Z,4.30
2023-03-15T08:46:43.978Z,4.50
2023-03-15T08:49:12.215Z,4.50
2023-03-15T08:51:40.965Z,4.60
2023-03-15T08:54:09.117Z,4.70
2023-03-15T08:56:38.809Z,4.70
2023-03-15T08:59:06.949Z,4.70
2023-03-15T09:01:35.848Z,4.80
2023-03-15T09:04:04.352Z,4.90
2023-03-15T09:06:32.572Z,5.00
2023-03-15T09:09:01.019Z,5.10
2023-03-15T09:11:29.163Z,5.20
2023-03-15T09:13:58.588Z,5.30
2023-03-15T09:16:26.895Z,5.50
2023-03-15T09:18:55.048Z,5.80
2023-03-15T09:21:24.630Z,6.00
2023-03-15T09:23:52.698Z,6.40
2023-03-15T09:26:20.855Z,6.60
2023-03-15T09:28:48.994Z,6.80
2023-03-15T09:31:18.601Z,6.90
2023-03-15T09:33:47.308Z,6.90
2023-03-15T09:36:15.401Z,6.60
2023-03-15T09:38:44.806Z,6.50
2023-03-15T09:41:21.849Z,6.50
2023-03-15T09:44:15.971Z,6.60
2023-03-15T09:47:05.846Z,6.70
2023-03-15T09:49:45.108Z,7.00
2023-03-15T09:52:30.414Z,7.00
2023-03-15T09:55:04.685Z,7.00
2023-03-15T09:57:42.428Z,7.10
2023-03-15T10:00:20.593Z,7.00
2023-03-15T10:02:59.432Z,7.00
2023-03-15T10:05:39.173Z,7.10
2023-03-15T10:08:13.146Z,7.00
2023-03-15T10:10:52.625Z,7.10
2023-03-15T10:13:45.356Z,7.10
2023-03-15T10:16:36.301Z,6.90
2023-03-15T10:19:17.149Z,6.60
2023-03-15T10:21:59.064Z,6.50
2023-03-15T10:24:38.148Z,6.40
2023-03-15T10:27:19.238Z,6.30
2023-03-15T10:29:51.567Z,6.40
2023-03-15T10:32:24.739Z,6.50
2023-03-15T10:34:57.762Z,6.60
2023-03-15T10:37:26.523Z,6.80
2023-03-15T10:39:59.649Z,6.90
2023-03-15T10:42:33.689Z,7.00
2023-03-15T10:45:20.343Z,6.90
2023-03-15T10:47:59.640Z,6.70
2023-03-15T10:50:33.279Z,6.70
2023-03-15T10:53:11.384Z,6.60
2023-03-15T10:55:45.291Z,6.50
2023-03-15T10:58:28.113Z,6.40
2023-03-15T11:01:03.912Z,6.40
2023-03-15T11:03:32.130Z,6.40
2023-03-15T11:06:02.377Z,6.40
2023-03-15T11:08:40.787Z,6.40
2023-03-15T11:11:10.111Z,6.40
2023-03-15T11:13:40.406Z,6.40
2023-03-15T11:16:23.057Z,6.50
2023-03-15T11:18:56.825Z,6.30
2023-03-15T11:21:33.541Z,6.30
2023-03-15T11:24:04.247Z,6.20
2023-03-15T11:26:38.139Z,6.20
2023-03-15T11:29:15.921Z,6.30
2023-03-15T11:31:44.359Z,6.30
2023-03-15T11:34:25.585Z,6.30
2023-03-15T11:37:08.480Z,6.30
2023-03-15T11:39:45.584Z,6.40
2023-03-15T11:42:23.077Z,6.30
2023-03-15T11:44:56.791Z,6.30
2023-03-15T11:47:39.265Z,6.20
2023-03-15T11:50:08.929Z,6.20
2023-03-15T11:52:39.322Z,6.20
2023-03-15T11:55:08.487Z,6.10
2023-03-15T11:57:45.087Z,6.10
2023-03-15T12:00:54.535Z,6.20
2023-03-15T12:03:37.719Z,6.20
2023-03-15T12:06:35.542Z,6.30
2023-03-15T12:09:56.361Z,6.40
2023-03-15T12:12:40.798Z,6.50
2023-03-15T12:15:46.366Z,6.50
2023-03-15T12:18:27.280Z,6.60
2023-03-15T12:21:10.928Z,6.60
2023-03-15T12:23:48.432Z,6.60
2023-03-15T12:26:28.282Z,6.40
2023-03-15T12:29:09.782Z,6.20
2023-03-15T12:32:09.611Z,6.20
2023-03-15T12:34:50.835Z,6.00
2023-03-15T12:37:24.741Z,5.90
2023-03-15T12:40:01.832Z,5.90
2023-03-15T12:43:13.296Z,5.90
2023-03-15T12:45:47.128Z,5.90
2023-03-15T12:48:31.769Z,5.90
2023-03-15T12:51:14.538Z,5.90
2023-03-15T12:53:52.390Z,5.80
2023-03-15T12:56:45.859Z,5.70
2023-03-15T12:59:23.576Z,5.70
2023-03-15T13:01:53.012Z,5.70
2023-03-15T13:04:23.045Z,5.70
2023-03-15T13:07:05.122Z,5.70
2023-03-15T13:10:08.549Z,5.70
2023-03-15T13:12:43.540Z,5.70
2023-03-15T13:15:20.326Z,5.70
2023-03-15T13:17:52.137Z,5.70
2023-03-15T13:20:42.150Z,5.80
2023-03-15T13:23:18.773Z,5.80
2023-03-15T13:26:12.892Z,5.80
2023-03-15T13:28:47.535Z,5.80
2023-03-15T13:31:23.798Z,5.90
2023-03-15T13:33:57.716Z,5.90
2023-03-15T13:36:40.714Z,6.00
2023-03-15T13:39:19.501Z,6.00
2023-03-15T13:41:47.926Z,6.00
2023-03-15T13:44:22.061Z,6.00
2023-03-15T13:46:51.996Z,5.90
2023-03-15T13:49:22.159Z,5.80
2023-03-15T13:51:54.345Z,5.80
2023-03-15T13:54:27.665Z,6.00
2023-03-15T13:57:04.992Z,6.10
2023-03-15T13:59:40.912Z,6.20
2023-03-15T14:02:16.806Z,6.30
2023-03-15T14:04:53.349Z,6.30
2023-03-15T14:07:34.838Z,6.40
2023-03-15T14:10:24.002Z,6.50
2023-03-15T14:12:54.152Z,6.50
2023-03-15T14:15:26.953Z,6.30
2023-03-15T14:18:04.305Z,6.20
2023-03-15T14:20:39.575Z,6.20
2023-03-15T14:23:14.265Z,6.00
2023-03-15T14:25:43.050Z,6.00
2023-03-15T14:28:16.904Z,5.90
2023-03-15T14:30:55.458Z,5.90
2023-03-15T14:33:31.015Z,5.90
2023-03-15T14:36:02.178Z,5.90
2023-03-15T14:38:37.568Z,5.80
2023-03-15T14:41:26.124Z,5.80
2023-03-15T14:43:54.590Z,5.80
2023-03-15T14:46:22.897Z,5.80
2023-03-15T14:48:52.302Z,5.90
2023-03-15T14:51:23.742Z,5.80
2023-03-15T14:53:57.684Z,5.80
2023-03-15T14:56:26.698Z,5.80
2023-03-15T14:58:55.065Z,5.80
2023-03-15T15:01:28.203Z,5.70
2023-03-15T15:04:01.546Z,5.70
2023-03-15T15:06:32.919Z,5.60
2023-03-15T15:09:06.051Z,5.60
2023-03-15T15:11:34.673Z,5.50
2023-03-15T15:14:02.807Z,5.50
2023-03-15T15:16:30.982Z,5.60
2023-03-15T15:18:59.213Z,5.60
2023-03-15T15:21:33.807Z,5.70
2023-03-15T15:24:07.998Z,5.70
2023-03-15T15:26:37.413Z,5.80
2023-03-15T15:29:05.621Z,5.80
2023-03-15T15:31:34.801Z,5.80
2023-03-15T15:34:03.175Z,5.70
2023-03-15T15:36:35.507Z,5.70
2023-03-15T15:39:11.569Z,5.70
2023-03-15T15:41:39.740Z,5.70
2023-03-15T15:44:15.999Z,5.70
2023-03-15T15:46:46.391Z,5.70
2023-03-15T15:49:14.941Z,5.70
2023-03-15T15:51:46.410Z,5.80
2023-03-15T15:54:19.697Z,5.80
2023-03-15T15:56:52.648Z,5.90
2023-03-15T15:59:20.932Z,6.00
2023-03-15T16:02:00.097Z,6.30
2023-03-15T16:04:30.642Z,6.50
2023-03-15T16:07:02.194Z,6.50
2023-03-15T16:09:36.309Z,6.80
2023-03-15T16:12:13.216Z,7.50
2023-03-15T16:14:41.670Z,8.50
2023-03-15T16:17:15.446Z,9.60
2023-03-15T16:19:43.560Z,10.50
2023-03-15T16:22:12.108Z,11.20
2023-03-15T16:24:45.738Z,11.40
2023-03-15T16:27:17.005Z,11.40
2023-03-15T16:29:47.666Z,11.00
2023-03-15T16:32:32.831Z,10.40
2023-03-15T16:35:15.258Z,9.60
2023-03-15T16:37:45.105Z,9.00
2023-03-15T16:40:23.719Z,8.50
2023-03-15T16:42:52.104Z,8.00
2023-03-15T16:45:21.526Z,7.60
2023-03-15T16:47:50.247Z,7.30
2023-03-15T16:50:19.578Z,6.90
2023-03-15T16:52:53.218Z,6.70
2023-03-15T16:55:26.659Z,6.40
2023-03-15T16:57:55.154Z,6.20
2023-03-15T17:00:25.486Z,6.00
2023-03-15T17:02:54.377Z,5.80
2023-03-15T17:05:24.707Z,5.60
2023-03-15T17:07:55.712Z,5.50
2023-03-15T17:10:29.108Z,5.40
2023-03-15T17:13:00.850Z,5.30
2023-03-15T17:15:30.989Z,5.10
2023-03-15T17:18:00.306Z,5.10
2023-03-15T17:20:30.763Z,5.10
2023-03-15T17:23:04.513Z,5.10
2023-03-15T17:25:35.210Z,5.00
2023-03-15T17:28:04.687Z,4.90
2023-03-15T17:30:35.505Z,4.90
2023-03-15T17:33:04.592Z,4.90
2023-03-15T17:35:37.699Z,4.80
2023-03-15T17:38:14.614Z,4.80
2023-03-15T17:40:44.316Z,4.80
2023-03-15T17:43:15.231Z,4.70
2023-03-15T17:45:44.125Z,4.60
2023-03-15T17:48:12.595Z,4.60
2023-03-15T17:50:44.406Z,4.40
2023-03-15T17:53:17.986Z,4.30
2023-03-15T17:55:49.028Z,4.10
2023-03-15T17:58:21.119Z,4.00
2023-03-15T18:00:51.369Z,3.80
2023-03-15T18:03:19.804Z,3.70
2023-03-15T18:05:48.348Z,3.50
2023-03-15T18:08:19.659Z,3.40
2023-03-15T18:10:51.184Z,3.40
2023-03-15T18:13:23.244Z,3.30
2023-03-15T18:15:52.438Z,3.20
2023-03-15T18:18:21.264Z,3.20
2023-03-15T18:20:50.256Z,3.20
2023-03-15T18:23:18.995Z,3.10
2023-03-15T18:25:48.627Z,3.00
2023-03-15T18:28:16.758Z,2.90
2023-03-15T18:30:45.469Z,2.80
2023-03-15T18:33:15.503Z,2.70
2023-03-15T18:35:44.041Z,2.70
2023-03-15T18:38:12.292Z,2.50
2023-03-15T18:40:40.446Z,2.50
2023-03-15T18:43:14.522Z,2.40
2023-03-15T18:45:42.846Z,2.30
2023-03-15T18:48:11.003Z,2.20
2023-03-15T18:50:39.219Z,2.10
2023-03-15T18:53:07.541Z,2.00
2023-03-15T18:55:36.126Z,1.90
2023-03-15T18:58:08.784Z,1.90
2023-03-15T19:00:38.854Z,1.80
2023-03-15T19:03:08.290Z,1.70
2023-03-15T19:05:38.764Z,1.60
2023-03-15T19:08:07.322Z,1.60
2023-03-15T19:10:35.615Z,1.50
2023-03-15T19:13:04.787Z,1.40
2023-03-15T19:15:36.101Z,1.40
2023-03-15T19:18:05.845Z,1.40
2023-03-15T19:20:36.388Z,1.30
2023-03-15T19:23:07.449Z,1.20
2023-03-15T19:25:35.654Z,1.20
2023-03-15T19:28:04.524Z,1.10
2023-03-15T19:30:33.464Z,1.10
2023-03-15T19:33:01.835Z,1.00
2023-03-15T19:35:33.150Z,1.00
2023-03-15T19:38:01.837Z,0.90
2023-03-15T19:40:30.232Z,0.90
2023-03-15T19:42:58.377Z,0.80
2023-03-15T19:45:26.509Z,0.80
2023-03-15T19:47:54.706Z,0.70
2023-03-15T19:50:22.929Z,0.70
2023-03-15T19:52:52.544Z,0.60
2023-03-15T19:55:23.482Z,0.60
2023-03-15T19:57:51.671Z,0.60
2023-03-15T20:00:23.212Z,0.50
2023-03-15T20:02:51.607Z,0.50
2023-03-15T20:05:21.903Z,0.50
2023-03-15T20:07:52.465Z,0.50
2023-03-15T20:10:22.242Z,0.50
2023-03-15T20:12:50.646Z,0.40
2023-03-15T20:15:20.939Z,0.40
2023-03-15T20:17:49.188Z,0.30
2023-03-15T20:20:18.546Z,0.30
2023-03-15T20:22:47.235Z,0.30
2023-03-15T20:25:19.996Z,0.20
2023-03-15T20:27:48.514Z,0.20
2023-03-15T20:30:18.850Z,0.20
2023-03-15T20:32:47.170Z,0.20
2023-03-15T20:35:15.448Z,0.20
2023-03-15T20:37:43.783Z,0.20
2023-03-15T20:40:14.999Z,0.10
2023-03-15T20:42:44.724Z,0.10
2023-03-15T20:45:14.631Z,0.10
2023-03-15T20:47:43.714Z,0.00
2023-03-15T20:50:14.102Z,0.00
2023-03-15T20:52:43.377Z,0.00
2023-03-15T20:55:13.577Z,-0.10
2023-03-15T20:57:42.904Z,-0.10
2023-03-15T21:00:18.145Z,-0.10
2023-03-15T21:02:47.623Z,-0.10
2023-03-15T21:05:16.302Z,-0.20
2023-03-15T21:07:44.978Z,-0.20
2023-03-15T21:10:14.639Z,-0.30
2023-03-15T21:12:44.908Z,-0.30
2023-03-15T21:15:17.504Z,-0.30
2023-03-15T21:17:46.092Z,-0.40
2023-03-15T21:20:15.546Z,-0.40
2023-03-15T21:22:43.984Z,-0.40
2023-03-15T21:25:13.211Z,-0.50
2023-03-15T21:27:41.553Z,-0.50
2023-03-15T21:30:13.839Z,-0.50
2023-03-15T21:32:44.657Z,-0.50
2023-03-15T21:35:13.600Z,-0.50
2023-03-15T21:37:41.939Z,-0.60
2023-03-15T21:40:13.193Z,-0.60
2023-03-15T21:42:42.589Z,-0.60
2023-03-15T21:45:12.209Z,-0.70
2023-03-15T21:47:40.549Z,-0.70
2023-03-15T21:50:13.319Z,-0.70
2023-03-15T21:52:41.622Z,-0.70
2023-03-15T21:55:15.328Z,-0.70
2023-03-15T21:57:44.654Z,-0.70
2023-03-15T22:00:16.014Z,-0.70
2023-03-15T22:02:45.009Z,-0.70
2023-03-15T22:05:15.187Z,-0.70
2023-03-15T22:07:43.877Z,-0.70
2023-03-15T22:10:15.322Z,-0.80
2023-03-15T22:12:43.945Z,-0.80
2023-03-15T22:15:13.322Z,-0.80
2023-03-15T22:17:41.930Z,-0.80
2023-03-15T22:20:16.317Z,-0.90
2023-03-15T22:22:46.874Z,-0.90
2023-03-15T22:25:16.124Z,-0.90
2023-03-15T22:27:44.772Z,-0.90
2023-03-15T22:30:15.574Z,-1.00
2023-03-15T22:32:44.764Z,-1.00
2023-03-15T22:35:14.375Z,-1.00
2023-03-15T22:37:42.725Z,-1.10
2023-03-15T22:40:15.123Z,-1.10
2023-03-15T22:42:44.004Z,-1.00
2023-03-15T22:45:12.613Z,-1.10
2023-03-15T22:47:40.754Z,-1.10
2023-03-15T22:50:11.644Z,-1.10
2023-03-15T22:52:39.816Z,-1.10
2023-03-15T22:55:10.730Z,-1.10
2023-03-15T22:57:40.716Z,-1.20
2023-03-15T23:00:13.866Z,-1.20
2023-03-15T23:02:42.903Z,-1.20
2023-03-15T23:05:12.657Z,-1.30
2023-03-15T23:07:41.719Z,-1.30
2023-03-15T23:10:11.586Z,-1.30
2023-03-15T23:12:41.238Z,-1.30
2023-03-15T23:15:11.966Z,-1.40
2023-03-15T23:17:40.082Z,-1.40
2023-03-15T23:20:10.258Z,-1.40
2023-03-15T23:22:38.392Z,-1.40
2023-03-15T23:25:08.651Z,-1.40
2023-03-15T23:27:36.810Z,-1.40
2023-03-15T23:30:09.168Z,-1.50
2023-03-15T23:32:37.721Z,-1.50
2023-03-15T23:35:07.799Z,-1.50
2023-03-15T23:37:36.317Z,-1.50
2023-03-15T23:40:09.562Z,-1.50
2023-03-15T23:42:37.752Z,-1.60
2023-03-15T23:45:09.523Z,-1.60
2023-03-15T23:47:37.922Z,-1.60
2023-03-15T23:50:08.061Z,-1.60
2023-03-15T23:52:36.507Z,-1.60
2023-03-15T23:55:05.017Z,-1.60
2023-03-15T23:57:33.131Z,-1.70
